Terminal Aerodrome Forecast
Issued by NWS Newport/Morehead City, NC

Home | Current Version | Previous Version | Text Only | Print | Product List | Glossary Off
Versions: 1 2 3 4 5 6 7 8 9 10 11 12 13 14 15

000
FTUS42 KMHX 021025 AAA
TAFEWN
TAF AMD
KEWN 021025Z 0210/0306 00000KT P6SM SCT100
      TEMPO 0210/0212 1 1/2SM BR SCT002
     FM021400 35009KT P6SM FEW045 SCT100
      TEMPO 0219/0223 BKN045
     FM030000 00000KT P6SM SKC=

USA.gov is the U.S. government's official web portal to all federal, state and local government web resources and services.